Time;durP1;ratioP1;P1;durP2;ratioP2;P2;SDS_P1;SDS_P2;PMS_P1;PMS_P2;Temp;Humidity;BMP_temperature;BMP_pressure;BME280_temperature;BME280_humidity;BME280_pressure;Samples;Min_cycle;Max_cycle;Signal;HPM_P1;HPM_P2
2023/02/15 00:01:21;;;;;;;0.30;0.30;;;;;;;;;;5042423;28;20258;-66
2023/02/15 00:03:48;;;;;;;0.30;0.30;;;;;;;;;;5051189;28;20274;-65
2023/02/15 00:06:14;;;;;;;0.30;0.30;;;;;;;;;;5042279;28;20301;-66
2023/02/15 00:08:42;;;;;;;0.20;0.20;;;;;;;;;;5051301;28;20208;-66
2023/02/15 00:11:09;;;;;;;0.20;0.20;;;;;;;;;;5041239;28;20301;-66
2023/02/15 00:13:38;;;;;;;0.30;0.30;;;;;;;;;;5051881;28;20450;-66
2023/02/15 00:16:05;;;;;;;0.20;0.20;;;;;;;;;;5040738;28;20242;-66
2023/02/15 00:18:31;;;;;;;0.30;0.30;;;;;;;;;;5052150;28;20242;-66
2023/02/15 00:20:58;;;;;;;0.27;0.27;;;;;;;;;;5039748;28;20497;-66
2023/02/15 00:23:24;;;;;;;0.30;0.30;;;;;;;;;;5053190;28;20283;-67
2023/02/15 00:25:52;;;;;;;0.20;0.20;;;;;;;;;;5038952;28;20249;-66
2023/02/15 00:28:18;;;;;;;0.30;0.30;;;;;;;;;;5053864;28;20262;-66
2023/02/15 00:30:45;;;;;;;0.20;0.20;;;;;;;;;;5037768;28;20253;-67
2023/02/15 00:33:11;;;;;;;0.30;0.30;;;;;;;;;;5054750;28;20274;-66
2023/02/15 00:35:38;;;;;;;0.20;0.20;;;;;;;;;;5036923;28;20270;-66
2023/02/15 00:38:04;;;;;;;0.20;0.20;;;;;;;;;;5055351;28;20234;-66
2023/02/15 00:40:30;;;;;;;1.80;1.80;;;;;;;;;;5036004;28;20254;-67
2023/02/15 00:42:58;;;;;;;0.20;0.20;;;;;;;;;;5056306;28;20267;-67
2023/02/15 00:45:25;;;;;;;0.20;0.20;;;;;;;;;;5039352;28;20217;-66
2023/02/15 00:47:51;;;;;;;0.30;0.30;;;;;;;;;;5063948;28;20320;-65
2023/02/15 00:50:17;;;;;;;0.30;0.30;;;;;;;;;;5041100;28;20226;-65
2023/02/15 00:52:44;;;;;;;0.20;0.20;;;;;;;;;;5064555;28;20227;-66
2023/02/15 00:55:10;;;;;;;0.30;0.30;;;;;;;;;;5047969;28;20408;-64
2023/02/15 00:57:36;;;;;;;0.20;0.20;;;;;;;;;;5064287;28;20248;-66
2023/02/15 01:00:05;;;;;;;0.20;0.20;;;;;;;;;;5050404;28;20209;-65
2023/02/15 01:02:31;;;;;;;0.20;0.20;;;;;;;;;;5055284;28;20258;-65
2023/02/15 01:04:57;;;;;;;2.87;2.73;;;;;;;;;;5050252;28;20279;-66
2023/02/15 01:07:24;;;;;;;0.30;0.30;;;;;;;;;;5055391;28;20253;-65
2023/02/15 01:09:50;;;;;;;0.30;0.30;;;;;;;;;;5049649;28;20271;-65
2023/02/15 01:12:16;;;;;;;0.30;0.30;;;;;;;;;;5055327;28;20257;-65
2023/02/15 01:14:43;;;;;;;0.20;0.20;;;;;;;;;;5050162;28;20238;-65
2023/02/15 01:17:10;;;;;;;0.30;0.30;;;;;;;;;;5055064;28;20264;-65
2023/02/15 01:19:37;;;;;;;0.20;0.20;;;;;;;;;;5050087;28;20265;-65
2023/02/15 01:22:03;;;;;;;0.30;0.30;;;;;;;;;;5054322;28;20253;-65
2023/02/15 01:24:30;;;;;;;0.30;0.30;;;;;;;;;;5050599;28;20273;-66
2023/02/15 01:26:56;;;;;;;0.30;0.30;;;;;;;;;;5053299;28;20310;-65
2023/02/15 01:29:22;;;;;;;0.30;0.30;;;;;;;;;;5051594;28;20250;-66
2023/02/15 01:31:49;;;;;;;0.27;0.27;;;;;;;;;;5052048;28;20264;-66
2023/02/15 01:34:16;;;;;;;0.30;0.30;;;;;;;;;;5052490;28;20236;-65
2023/02/15 01:36:43;;;;;;;0.30;0.30;;;;;;;;;;5051392;28;20253;-66
2023/02/15 01:39:10;;;;;;;0.30;0.30;;;;;;;;;;5053316;28;20237;-66
2023/02/15 01:41:36;;;;;;;0.20;0.20;;;;;;;;;;5050565;28;20308;-65
2023/02/15 01:44:03;;;;;;;0.93;0.93;;;;;;;;;;5054257;28;20281;-66
2023/02/15 01:46:32;;;;;;;0.40;0.40;;;;;;;;;;5049616;28;20296;-66
2023/02/15 01:49:01;;;;;;;0.30;0.30;;;;;;;;;;5054521;28;20241;-66
2023/02/15 01:51:31;;;;;;;0.30;0.30;;;;;;;;;;5049202;28;20244;-67
2023/02/15 01:53:59;;;;;;;0.30;0.30;;;;;;;;;;5054906;28;20576;-66
2023/02/15 01:56:28;;;;;;;0.20;0.20;;;;;;;;;;5046576;28;20315;-66
2023/02/15 01:58:57;;;;;;;0.30;0.30;;;;;;;;;;5051900;28;20236;-66
2023/02/15 02:01:24;;;;;;;0.20;0.20;;;;;;;;;;5045512;28;20242;-66
2023/02/15 02:03:55;;;;;;;0.23;0.23;;;;;;;;;;5052394;28;20275;-67
2023/02/15 02:06:22;;;;;;;0.20;0.20;;;;;;;;;;5045233;28;20595;-66
2023/02/15 02:08:50;;;;;;;0.30;0.30;;;;;;;;;;5052453;28;20444;-67
2023/02/15 02:11:16;;;;;;;0.20;0.20;;;;;;;;;;5044611;28;20313;-67
2023/02/15 02:13:44;;;;;;;0.23;0.23;;;;;;;;;;5053203;28;20265;-66
2023/02/15 02:16:14;;;;;;;0.30;0.30;;;;;;;;;;5043566;28;20255;-66
2023/02/15 02:18:46;;;;;;;0.30;0.30;;;;;;;;;;5053299;28;20273;-66
2023/02/15 02:21:33;;;;;;;0.30;0.30;;;;;;;;;;5043949;28;20715;-66
2023/02/15 02:24:10;;;;;;;1.50;1.50;;;;;;;;;;5051065;28;20517;-67
2023/02/15 02:26:52;;;;;;;0.30;0.30;;;;;;;;;;5046961;28;20304;-65
2023/02/15 02:29:33;;;;;;;0.30;0.30;;;;;;;;;;5045197;28;20247;-66
2023/02/15 02:32:16;;;;;;;0.30;0.30;;;;;;;;;;5049416;28;20252;-66
2023/02/15 02:34:49;;;;;;;1.47;1.47;;;;;;;;;;5046049;28;20206;-66
2023/02/15 02:37:20;;;;;;;0.30;0.30;;;;;;;;;;5050996;28;20303;-67
2023/02/15 02:39:50;;;;;;;0.30;0.30;;;;;;;;;;5045917;28;20241;-67
2023/02/15 02:42:19;;;;;;;0.30;0.30;;;;;;;;;;5050998;28;20253;-67
2023/02/15 02:44:47;;;;;;;0.20;0.20;;;;;;;;;;5045870;28;20237;-67
2023/02/15 02:47:16;;;;;;;0.30;0.30;;;;;;;;;;5050827;28;20305;-65
2023/02/15 02:49:44;;;;;;;0.30;0.30;;;;;;;;;;5045739;28;20234;-66
2023/02/15 02:52:26;;;;;;;0.30;0.30;;;;;;;;;;5050623;28;20241;-66
2023/02/15 02:54:52;;;;;;;0.30;0.30;;;;;;;;;;5045543;28;20218;-66
2023/02/15 02:57:19;;;;;;;0.30;0.30;;;;;;;;;;5050680;28;20574;-66
2023/02/15 02:59:47;;;;;;;0.30;0.30;;;;;;;;;;5045609;28;20548;-66
2023/02/15 03:02:16;;;;;;;0.30;0.30;;;;;;;;;;5050436;28;20304;-66
2023/02/15 03:04:46;;;;;;;0.30;0.30;;;;;;;;;;5045492;28;20276;-66
2023/02/15 03:07:16;;;;;;;0.30;0.30;;;;;;;;;;5050340;28;20240;-66
2023/02/15 03:09:43;;;;;;;0.30;0.30;;;;;;;;;;5045344;28;20346;-66
2023/02/15 03:12:11;;;;;;;0.30;0.30;;;;;;;;;;5050201;28;20587;-66
2023/02/15 03:14:37;;;;;;;1.03;1.03;;;;;;;;;;5045292;28;20234;-66
2023/02/15 03:17:04;;;;;;;2.33;1.70;;;;;;;;;;5049399;28;20613;-67
2023/02/15 03:19:32;;;;;;;0.30;0.30;;;;;;;;;;5045756;28;20245;-66
2023/02/15 03:22:08;;;;;;;0.30;0.30;;;;;;;;;;5048898;28;20488;-66
2023/02/15 03:24:36;;;;;;;0.30;0.30;;;;;;;;;;5045311;28;20432;-66
2023/02/15 03:27:04;;;;;;;0.30;0.30;;;;;;;;;;5049085;28;20449;-67
2023/02/15 03:29:32;;;;;;;0.20;0.20;;;;;;;;;;5045326;28;20248;-66
2023/02/15 03:32:01;;;;;;;0.30;0.30;;;;;;;;;;5048371;28;20267;-65
2023/02/15 03:34:27;;;;;;;0.30;0.30;;;;;;;;;;5045944;28;20207;-66
2023/02/15 03:36:58;;;;;;;0.40;0.40;;;;;;;;;;5047672;28;20270;-66
2023/02/15 03:39:30;;;;;;;0.33;0.33;;;;;;;;;;5045887;28;20420;-66
2023/02/15 03:41:58;;;;;;;0.30;0.30;;;;;;;;;;5048013;28;20261;-66
2023/02/15 03:44:27;;;;;;;0.30;0.30;;;;;;;;;;5046083;28;20271;-66
2023/02/15 03:46:56;;;;;;;0.30;0.30;;;;;;;;;;5047554;28;20315;-66
2023/02/15 03:49:25;;;;;;;0.30;0.30;;;;;;;;;;5046270;28;20280;-67
2023/02/15 03:51:53;;;;;;;0.30;0.30;;;;;;;;;;5047199;28;20254;-66
2023/02/15 04:02:37;;;;;;;0.40;0.40;;;;;;;;;;5049570;28;20639;-67
2023/02/15 04:05:03;;;;;;;0.40;0.40;;;;;;;;;;5044066;28;20528;-66
2023/02/15 04:07:29;;;;;;;0.30;0.30;;;;;;;;;;5049388;28;20267;-68
2023/02/15 04:12:41;;;;;;;0.30;0.30;;;;;;;;;;5032522;28;20287;-67
2023/02/15 04:17:52;;;;;;;0.30;0.30;;;;;;;;;;5043801;28;20196;-65
2023/02/15 04:25:50;;;;;;;0.30;0.30;;;;;;;;;;5038724;28;20259;-66
2023/02/15 04:28:18;;;;;;;0.30;0.30;;;;;;;;;;5054009;28;20272;-66
2023/02/15 04:30:44;;;;;;;0.30;0.30;;;;;;;;;;5037711;28;20239;-66
2023/02/15 04:33:11;;;;;;;0.30;0.30;;;;;;;;;;5054759;28;20261;-66
2023/02/15 04:35:37;;;;;;;0.30;0.30;;;;;;;;;;5036867;28;20262;-66
2023/02/15 04:38:04;;;;;;;0.30;0.30;;;;;;;;;;5055654;28;20237;-66
2023/02/15 04:40:30;;;;;;;0.30;0.30;;;;;;;;;;5035924;28;20250;-67
2023/02/15 04:42:56;;;;;;;0.30;0.30;;;;;;;;;;5056698;28;20601;-67
2023/02/15 04:45:24;;;;;;;0.30;0.30;;;;;;;;;;5035303;28;20447;-67
2023/02/15 04:47:50;;;;;;;0.30;0.30;;;;;;;;;;5057116;28;20193;-66
2023/02/15 04:50:17;;;;;;;2.10;2.03;;;;;;;;;;5034401;28;20243;-66
2023/02/15 04:52:43;;;;;;;0.30;0.30;;;;;;;;;;5058219;28;20472;-66
2023/02/15 04:55:10;;;;;;;0.30;0.30;;;;;;;;;;5043833;28;20372;-66
2023/02/15 04:57:36;;;;;;;0.30;0.30;;;;;;;;;;5032132;28;20204;-65
2023/02/15 05:00:02;;;;;;;0.30;0.30;;;;;;;;;;5043715;28;20236;-67
2023/02/15 05:02:30;;;;;;;0.30;0.30;;;;;;;;;;5048523;28;20304;-66
2023/02/15 05:04:56;;;;;;;0.30;0.30;;;;;;;;;;5043395;28;20280;-66
2023/02/15 05:07:23;;;;;;;0.30;0.30;;;;;;;;;;5048645;28;20245;-67
2023/02/15 05:09:49;;;;;;;0.30;0.30;;;;;;;;;;5043699;28;20485;-66
2023/02/15 05:12:16;;;;;;;0.30;0.30;;;;;;;;;;5048606;28;20308;-67
2023/02/15 05:14:42;;;;;;;0.30;0.30;;;;;;;;;;5043622;28;20276;-66
2023/02/15 05:17:08;;;;;;;0.53;0.53;;;;;;;;;;5048142;28;20249;-66
2023/02/15 05:19:36;;;;;;;0.30;0.30;;;;;;;;;;5043854;28;20276;-66
2023/02/15 05:22:02;;;;;;;0.30;0.30;;;;;;;;;;5047550;28;20491;-66
2023/02/15 05:29:57;;;;;;;0.30;0.30;;;;;;;;;;5043240;28;20257;-66
2023/02/15 05:32:23;;;;;;;0.30;0.30;;;;;;;;;;5050499;28;20288;-66
2023/02/15 05:34:51;;;;;;;0.30;0.30;;;;;;;;;;5047089;28;20275;-66
2023/02/15 05:37:18;;;;;;;0.30;0.30;;;;;;;;;;5052275;28;20439;-66
2023/02/15 05:39:44;;;;;;;0.30;0.30;;;;;;;;;;5047172;28;20527;-66
2023/02/15 05:42:10;;;;;;;0.30;0.30;;;;;;;;;;5051531;28;20587;-65
2023/02/15 05:44:37;;;;;;;0.40;0.40;;;;;;;;;;5047530;28;20384;-66
2023/02/15 05:47:04;;;;;;;0.30;0.30;;;;;;;;;;5050889;28;20262;-67
2023/02/15 05:49:32;;;;;;;0.30;0.30;;;;;;;;;;5047759;28;20205;-66
2023/02/15 05:51:59;;;;;;;0.30;0.30;;;;;;;;;;5049853;28;20232;-66
2023/02/15 05:54:26;;;;;;;0.30;0.30;;;;;;;;;;5048396;28;20209;-66
2023/02/15 05:56:52;;;;;;;0.30;0.30;;;;;;;;;;5049179;28;20242;-66
2023/02/15 05:59:19;;;;;;;0.30;0.30;;;;;;;;;;5049239;28;20205;-66
2023/02/15 06:01:45;;;;;;;0.30;0.30;;;;;;;;;;5047610;28;20236;-66
2023/02/15 06:04:11;;;;;;;0.30;0.30;;;;;;;;;;5050314;28;20272;-66
2023/02/15 06:06:38;;;;;;;0.30;0.30;;;;;;;;;;5047184;28;20315;-65
2023/02/15 06:09:05;;;;;;;0.30;0.30;;;;;;;;;;5050570;28;20273;-66
2023/02/15 06:11:32;;;;;;;0.30;0.30;;;;;;;;;;5046146;28;20238;-66
2023/02/15 06:13:58;;;;;;;0.30;0.30;;;;;;;;;;5051367;28;20307;-66
2023/02/15 06:16:24;;;;;;;0.30;0.30;;;;;;;;;;5045283;28;20247;-66
2023/02/15 06:18:51;;;;;;;0.30;0.30;;;;;;;;;;5052233;28;20205;-66
2023/02/15 06:21:17;;;;;;;0.30;0.30;;;;;;;;;;5043743;28;20241;-66
2023/02/15 06:23:44;;;;;;;0.30;0.30;;;;;;;;;;5053417;28;20206;-67
2023/02/15 06:26:11;;;;;;;0.30;0.30;;;;;;;;;;5042976;28;20245;-66
2023/02/15 06:28:38;;;;;;;0.30;0.30;;;;;;;;;;5054012;28;20368;-65
2023/02/15 06:31:05;;;;;;;0.30;0.30;;;;;;;;;;5042619;28;20300;-66
2023/02/15 06:33:33;;;;;;;0.30;0.30;;;;;;;;;;5054092;28;20233;-66
2023/02/15 06:36:00;;;;;;;0.30;0.30;;;;;;;;;;5042412;28;20245;-66
2023/02/15 06:38:26;;;;;;;0.30;0.30;;;;;;;;;;5054346;28;20212;-66
2023/02/15 06:40:53;;;;;;;0.30;0.30;;;;;;;;;;5041493;28;20282;-66
2023/02/15 06:43:20;;;;;;;0.30;0.30;;;;;;;;;;5054892;28;20260;-66
2023/02/15 06:45:47;;;;;;;0.30;0.30;;;;;;;;;;5040270;28;20308;-66
2023/02/15 06:48:13;;;;;;;0.30;0.30;;;;;;;;;;5055743;28;20263;-66
2023/02/15 06:50:39;;;;;;;0.30;0.30;;;;;;;;;;5039700;28;20255;-67
2023/02/15 06:53:06;;;;;;;0.30;0.30;;;;;;;;;;5056919;28;20291;-68
2023/02/15 06:55:32;;;;;;;0.30;0.30;;;;;;;;;;5038697;28;20436;-67
2023/02/15 06:57:59;;;;;;;0.30;0.30;;;;;;;;;;5057502;28;20195;-66
2023/02/15 07:00:26;;;;;;;0.30;0.30;;;;;;;;;;5037420;28;20238;-73
2023/02/15 07:02:55;;;;;;;0.40;0.40;;;;;;;;;;5058609;28;20380;-68
2023/02/15 07:05:21;;;;;;;0.83;0.83;;;;;;;;;;5037173;28;20209;-65
2023/02/15 07:07:48;;;;;;;0.30;0.30;;;;;;;;;;5058595;28;20228;-66
2023/02/15 07:10:14;;;;;;;0.30;0.30;;;;;;;;;;5036094;28;20229;-65
2023/02/15 07:12:44;;;;;;;0.63;0.63;;;;;;;;;;5059248;28;20237;-67
2023/02/15 07:15:10;;;;;;;0.30;0.30;;;;;;;;;;5035243;28;20209;-67
2023/02/15 07:17:38;;;;;;;0.30;0.30;;;;;;;;;;5060160;28;20276;-67
2023/02/15 07:20:07;;;;;;;0.30;0.30;;;;;;;;;;5045463;28;20279;-67
2023/02/15 07:22:35;;;;;;;0.30;0.30;;;;;;;;;;5033625;28;20269;-67
2023/02/15 07:25:02;;;;;;;0.30;0.30;;;;;;;;;;5044716;28;20238;-66
2023/02/15 07:27:28;;;;;;;0.33;0.33;;;;;;;;;;5050247;28;20466;-67
2023/02/15 07:29:55;;;;;;;0.30;0.30;;;;;;;;;;5044711;28;20284;-67
2023/02/15 07:32:21;;;;;;;0.40;0.40;;;;;;;;;;5050023;28;20325;-68
2023/02/15 07:34:49;;;;;;;0.30;0.30;;;;;;;;;;5045052;28;20278;-68
2023/02/15 07:37:15;;;;;;;0.30;0.30;;;;;;;;;;5049862;28;20272;-68
2023/02/15 07:39:42;;;;;;;9.80;4.30;;;;;;;;;;5044788;28;20525;-66
2023/02/15 07:42:08;;;;;;;0.30;0.30;;;;;;;;;;5049900;28;20250;-65
2023/02/15 07:44:34;;;;;;;0.30;0.30;;;;;;;;;;5044824;28;20551;-67
2023/02/15 07:47:01;;;;;;;0.30;0.30;;;;;;;;;;5048920;28;20557;-67
2023/02/15 07:49:27;;;;;;;0.30;0.30;;;;;;;;;;5045101;28;20251;-68
2023/02/15 07:51:55;;;;;;;0.30;0.30;;;;;;;;;;5048022;28;20290;-67
2023/02/15 07:54:21;;;;;;;0.30;0.30;;;;;;;;;;5045324;28;20215;-69
2023/02/15 07:56:48;;;;;;;0.40;0.40;;;;;;;;;;5047197;28;20442;-67
2023/02/15 07:59:14;;;;;;;0.30;0.30;;;;;;;;;;5046933;28;20245;-68
2023/02/15 08:01:41;;;;;;;0.30;0.30;;;;;;;;;;5046009;28;20257;-68
2023/02/15 08:04:09;;;;;;;0.30;0.30;;;;;;;;;;5047535;28;20202;-68
2023/02/15 08:06:36;;;;;;;0.30;0.30;;;;;;;;;;5045384;28;20244;-67
2023/02/15 08:09:06;;;;;;;0.30;0.30;;;;;;;;;;5048195;28;20232;-68
2023/02/15 08:11:39;;;;;;;0.27;0.27;;;;;;;;;;5045040;28;20261;-67
2023/02/15 08:14:07;;;;;;;5.87;5.43;;;;;;;;;;5047733;28;20233;-68
2023/02/15 08:16:34;;;;;;;0.20;0.20;;;;;;;;;;5044878;28;20301;-68
2023/02/15 08:19:02;;;;;;;0.20;0.20;;;;;;;;;;5048038;28;20199;-74
2023/02/15 08:21:29;;;;;;;0.20;0.20;;;;;;;;;;5044248;28;20246;-70
2023/02/15 08:23:56;;;;;;;0.30;0.30;;;;;;;;;;5048762;28;20238;-70
2023/02/15 08:26:24;;;;;;;0.23;0.23;;;;;;;;;;5043314;28;20241;-68
2023/02/15 08:28:51;;;;;;;0.20;0.20;;;;;;;;;;5049167;28;20210;-67
2023/02/15 08:31:17;;;;;;;0.20;0.20;;;;;;;;;;5042372;28;20270;-67
2023/02/15 08:33:44;;;;;;;0.20;0.20;;;;;;;;;;5049934;28;20229;-66
2023/02/15 08:36:13;;;;;;;0.30;0.30;;;;;;;;;;5041697;28;20573;-67
2023/02/15 08:38:39;;;;;;;0.20;0.20;;;;;;;;;;5050405;28;20215;-67
2023/02/15 08:41:15;;;;;;;0.20;0.20;;;;;;;;;;5040870;28;20245;-66
2023/02/15 08:43:43;;;;;;;0.20;0.20;;;;;;;;;;5050266;28;20445;-66
2023/02/15 08:46:11;;;;;;;0.50;0.50;;;;;;;;;;5041525;28;20525;-67
2023/02/15 08:48:38;;;;;;;0.20;0.20;;;;;;;;;;5050432;28;20215;-66
2023/02/15 08:51:10;;;;;;;0.20;0.20;;;;;;;;;;5040482;28;20309;-66
2023/02/15 08:53:36;;;;;;;0.20;0.20;;;;;;;;;;5050801;28;20554;-66
2023/02/15 08:56:03;;;;;;;0.20;0.20;;;;;;;;;;5040499;28;20251;-66
2023/02/15 08:58:30;;;;;;;2.30;1.53;;;;;;;;;;5051734;28;20336;-71
2023/02/15 09:00:58;;;;;;;0.20;0.20;;;;;;;;;;5039318;28;20251;-71
2023/02/15 09:03:24;;;;;;;0.20;0.20;;;;;;;;;;5052378;28;20231;-71
2023/02/15 09:05:51;;;;;;;0.10;0.10;;;;;;;;;;5040335;28;20452;-68
2023/02/15 09:08:17;;;;;;;0.20;0.20;;;;;;;;;;5057195;28;20214;-69
2023/02/15 09:10:44;;;;;;;0.10;0.10;;;;;;;;;;5041947;28;20305;-68
2023/02/15 09:13:10;;;;;;;0.10;0.10;;;;;;;;;;5057997;28;20256;-69
2023/02/15 09:15:37;;;;;;;1.90;1.90;;;;;;;;;;5040832;28;20260;-69
2023/02/15 09:18:05;;;;;;;0.10;0.10;;;;;;;;;;5058506;28;20265;-69
2023/02/15 09:20:32;;;;;;;0.10;0.10;;;;;;;;;;5040321;28;20248;-70
2023/02/15 09:22:58;;;;;;;0.10;0.10;;;;;;;;;;5059416;28;20436;-68
2023/02/15 09:25:25;;;;;;;0.10;0.10;;;;;;;;;;5039412;28;20212;-68
2023/02/15 09:27:51;;;;;;;0.10;0.10;;;;;;;;;;5059919;28;20209;-68
2023/02/15 09:30:18;;;;;;;0.10;0.10;;;;;;;;;;5037925;28;20244;-68
2023/02/15 09:32:45;;;;;;;0.10;0.10;;;;;;;;;;5060980;28;20277;-69
2023/02/15 09:35:13;;;;;;;0.10;0.10;;;;;;;;;;5037588;28;20213;-69
2023/02/15 09:37:39;;;;;;;0.10;0.10;;;;;;;;;;5061703;28;20384;-70
2023/02/15 09:40:07;;;;;;;0.00;0.00;;;;;;;;;;5046953;28;20444;-67
2023/02/15 09:42:48;;;;;;;0.03;0.03;;;;;;;;;;5035408;28;20214;-70
2023/02/15 09:45:22;;;;;;;0.10;0.10;;;;;;;;;;5036826;28;20213;-71
2023/02/15 09:48:01;;;;;;;0.20;0.20;;;;;;;;;;5059930;28;20264;-67
2023/02/15 09:50:33;;;;;;;0.00;0.00;;;;;;;;;;5039152;28;20256;-67
2023/02/15 09:53:14;;;;;;;1.38;1.38;;;;;;;;;;5058751;28;20223;-68
2023/02/15 09:55:47;;;;;;;0.10;0.10;;;;;;;;;;5040705;28;20267;-65
2023/02/15 09:58:17;;;;;;;0.00;0.00;;;;;;;;;;5056533;28;20192;-69
2023/02/15 10:00:47;;;;;;;0.00;0.00;;;;;;;;;;5040742;28;20505;-68
2023/02/15 10:03:19;;;;;;;0.00;0.00;;;;;;;;;;5056468;28;20196;-68
2023/02/15 10:05:54;;;;;;;0.00;0.00;;;;;;;;;;5041149;28;20497;-69
2023/02/15 10:08:40;;;;;;;0.00;0.00;;;;;;;;;;5056029;28;20220;-56
2023/02/15 10:14:01;;;;;;;0.10;0.10;;;;;;;;;;5050983;28;20239;-58
2023/02/15 10:16:31;;;;;;;0.00;0.00;;;;;;;;;;5046066;28;20259;-56
2023/02/15 10:19:03;;;;;;;0.00;0.00;;;;;;;;;;5050331;28;20243;-58
2023/02/15 10:21:40;;;;;;;0.03;0.03;;;;;;;;;;5046326;28;20244;-48
2023/02/15 10:24:16;;;;;;;0.00;0.00;;;;;;;;;;5049378;28;20271;-49
2023/02/15 10:26:44;;;;;;;0.00;0.00;;;;;;;;;;5047886;28;20244;-58
2023/02/15 10:29:16;;;;;;;0.05;0.05;;;;;;;;;;5048736;28;20284;-60
2023/02/15 10:31:45;;;;;;;0.03;0.03;;;;;;;;;;5047633;28;20483;-65
2023/02/15 10:34:16;;;;;;;0.10;0.10;;;;;;;;;;5048399;28;20401;-65
2023/02/15 10:36:51;;;;;;;0.00;0.00;;;;;;;;;;5047678;28;20494;-65
2023/02/15 10:39:20;;;;;;;0.00;0.00;;;;;;;;;;5047873;28;20246;-65
2023/02/15 10:41:52;;;;;;;0.00;0.00;;;;;;;;;;5048153;28;20264;-65
2023/02/15 10:44:26;;;;;;;0.00;0.00;;;;;;;;;;5047656;28;20292;-64
2023/02/15 10:47:01;;;;;;;0.00;0.00;;;;;;;;;;5048694;28;20255;-64
2023/02/15 10:49:33;;;;;;;0.00;0.00;;;;;;;;;;5046362;28;20246;-65
2023/02/15 10:52:07;;;;;;;0.00;0.00;;;;;;;;;;5049421;28;20315;-65
2023/02/15 10:54:37;;;;;;;0.00;0.00;;;;;;;;;;5045485;28;20275;-65
2023/02/15 10:57:05;;;;;;;0.00;0.00;;;;;;;;;;5050137;28;20469;-65
2023/02/15 10:59:42;;;;;;;0.05;0.05;;;;;;;;;;5045598;28;20205;-65
2023/02/15 11:02:14;;;;;;;0.00;0.00;;;;;;;;;;5050458;28;20306;-64
2023/02/15 11:04:45;;;;;;;0.00;0.00;;;;;;;;;;5045312;28;20256;-63
2023/02/15 11:07:16;;;;;;;0.00;0.00;;;;;;;;;;5050528;28;20434;-63
2023/02/15 11:09:45;;;;;;;0.00;0.00;;;;;;;;;;5045324;28;20236;-64
2023/02/15 11:12:13;;;;;;;0.10;0.10;;;;;;;;;;5050155;28;20473;-64
2023/02/15 11:14:44;;;;;;;0.00;0.00;;;;;;;;;;5045216;28;20268;-66
2023/02/15 11:17:13;;;;;;;0.00;0.00;;;;;;;;;;5049964;28;20319;-64
2023/02/15 11:19:40;;;;;;;0.00;0.00;;;;;;;;;;5045011;28;20229;-65
2023/02/15 11:22:08;;;;;;;0.00;0.00;;;;;;;;;;5049774;28;20307;-64
2023/02/15 11:24:39;;;;;;;0.00;0.00;;;;;;;;;;5044892;28;20228;-65
2023/02/15 11:27:06;;;;;;;0.00;0.00;;;;;;;;;;5049714;28;20482;-63
2023/02/15 11:29:34;;;;;;;0.00;0.00;;;;;;;;;;5044514;28;20223;-65
2023/02/15 11:32:02;;;;;;;0.00;0.00;;;;;;;;;;5048867;28;20255;-64
2023/02/15 11:34:33;;;;;;;18.98;8.85;;;;;;;;;;5045329;28;20233;-64
2023/02/15 11:37:02;;;;;;;0.00;0.00;;;;;;;;;;5048737;28;20248;-64
2023/02/15 11:39:31;;;;;;;0.10;0.10;;;;;;;;;;5045232;28;20512;-64
2023/02/15 11:42:03;;;;;;;0.00;0.00;;;;;;;;;;5048289;28;20240;-63
2023/02/15 11:44:33;;;;;;;0.00;0.00;;;;;;;;;;5044967;28;20232;-64
2023/02/15 11:47:01;;;;;;;0.00;0.00;;;;;;;;;;5048379;28;20505;-64
2023/02/15 11:49:29;;;;;;;0.00;0.00;;;;;;;;;;5045262;28;20272;-64
2023/02/15 11:51:56;;;;;;;0.10;0.10;;;;;;;;;;5048012;28;20448;-64
2023/02/15 11:54:26;;;;;;;0.00;0.00;;;;;;;;;;5045734;28;20235;-64
2023/02/15 11:56:53;;;;;;;0.03;0.03;;;;;;;;;;5047551;28;20448;-64
2023/02/15 11:59:28;;;;;;;0.00;0.00;;;;;;;;;;5045870;28;20243;-66
2023/02/15 12:01:54;;;;;;;0.00;0.00;;;;;;;;;;5047630;28;20309;-65
2023/02/15 12:04:23;;;;;;;0.00;0.00;;;;;;;;;;5045336;28;20255;-65
2023/02/15 12:06:52;;;;;;;0.00;0.00;;;;;;;;;;5046946;28;20636;-64
2023/02/15 12:09:21;;;;;;;0.00;0.00;;;;;;;;;;5045873;28;20546;-65
2023/02/15 12:11:47;;;;;;;0.00;0.00;;;;;;;;;;5046608;28;20519;-63
2023/02/15 12:14:16;;;;;;;0.10;0.10;;;;;;;;;;5046248;28;20272;-64
2023/02/15 12:16:45;;;;;;;0.00;0.00;;;;;;;;;;5045904;28;20240;-64
2023/02/15 12:19:22;;;;;;;0.00;0.00;;;;;;;;;;5046690;28;20208;-63
2023/02/15 12:21:50;;;;;;;0.00;0.00;;;;;;;;;;5046552;28;20472;-64
2023/02/15 12:24:18;;;;;;;0.00;0.00;;;;;;;;;;5045933;28;20235;-64
2023/02/15 12:26:45;;;;;;;0.00;0.00;;;;;;;;;;5046165;28;20341;-64
2023/02/15 12:29:16;;;;;;;0.00;0.00;;;;;;;;;;5046273;28;20283;-64
2023/02/15 12:31:44;;;;;;;0.00;0.00;;;;;;;;;;5045599;28;20239;-65
2023/02/15 12:34:13;;;;;;;0.00;0.00;;;;;;;;;;5046559;28;20275;-64
2023/02/15 12:36:46;;;;;;;0.00;0.00;;;;;;;;;;5045342;28;20459;-64
2023/02/15 12:39:20;;;;;;;0.00;0.00;;;;;;;;;;5046426;28;20208;-63
2023/02/15 12:41:57;;;;;;;0.05;0.05;;;;;;;;;;5045663;28;20242;-63
2023/02/15 12:44:26;;;;;;;0.10;0.10;;;;;;;;;;5044917;28;20411;-64
2023/02/15 12:47:01;;;;;;;0.00;0.00;;;;;;;;;;5046842;28;20612;-64
2023/02/15 12:49:27;;;;;;;0.00;0.00;;;;;;;;;;5044486;28;20274;-65
2023/02/15 12:51:55;;;;;;;0.28;0.28;;;;;;;;;;5046840;28;20420;-64
2023/02/15 12:54:34;;;;;;;0.00;0.00;;;;;;;;;;5045172;28;20496;-63
2023/02/15 12:57:13;;;;;;;0.00;0.00;;;;;;;;;;5047598;28;20248;-63
2023/02/15 12:59:48;;;;;;;0.00;0.00;;;;;;;;;;5043507;28;20343;-62
2023/02/15 13:02:20;;;;;;;0.00;0.00;;;;;;;;;;5048664;28;20241;-66
2023/02/15 13:04:49;;;;;;;0.00;0.00;;;;;;;;;;5043516;28;20367;-63
2023/02/15 13:07:15;;;;;;;0.10;0.10;;;;;;;;;;5048779;28;20240;-63
2023/02/15 13:09:42;;;;;;;0.10;0.10;;;;;;;;;;5043139;28;20232;-63
2023/02/15 13:12:12;;;;;;;0.00;0.00;;;;;;;;;;5048458;28;20316;-62
2023/02/15 13:14:44;;;;;;;0.00;0.00;;;;;;;;;;5043381;28;20207;-63
2023/02/15 13:17:10;;;;;;;0.10;0.10;;;;;;;;;;5048474;28;20299;-62
2023/02/15 13:19:41;;;;;;;0.52;0.35;;;;;;;;;;5043404;28;20276;-63
2023/02/15 13:22:11;;;;;;;0.10;0.10;;;;;;;;;;5048351;28;20310;-62
2023/02/15 13:24:40;;;;;;;0.00;0.00;;;;;;;;;;5043250;28;20228;-62
2023/02/15 13:27:06;;;;;;;0.10;0.10;;;;;;;;;;5048075;28;20290;-62
2023/02/15 13:29:35;;;;;;;0.00;0.00;;;;;;;;;;5043139;28;20217;-62
2023/02/15 13:32:08;;;;;;;0.10;0.10;;;;;;;;;;5047496;28;20240;-62
2023/02/15 13:34:37;;;;;;;0.10;0.10;;;;;;;;;;5043320;28;20279;-62
2023/02/15 13:37:06;;;;;;;0.00;0.00;;;;;;;;;;5047658;28;20316;-63
2023/02/15 13:39:35;;;;;;;0.03;0.03;;;;;;;;;;5043258;28;20284;-63
2023/02/15 13:42:05;;;;;;;0.03;0.03;;;;;;;;;;5047495;28;20511;-63
2023/02/15 13:44:45;;;;;;;0.10;0.10;;;;;;;;;;5043205;28;20563;-63
2023/02/15 13:47:18;;;;;;;0.20;0.20;;;;;;;;;;5048045;28;20306;-62
2023/02/15 13:49:51;;;;;;;0.10;0.10;;;;;;;;;;5043217;28;20432;-62
2023/02/15 13:52:21;;;;;;;0.10;0.10;;;;;;;;;;5048506;28;20288;-62
2023/02/15 13:54:57;;;;;;;0.05;0.05;;;;;;;;;;5046808;28;20277;-63
2023/02/15 13:57:33;;;;;;;0.10;0.10;;;;;;;;;;5051644;28;20652;-62
2023/02/15 14:00:03;;;;;;;0.10;0.10;;;;;;;;;;5046680;28;20282;-62
2023/02/15 14:02:43;;;;;;;0.05;0.05;;;;;;;;;;5051676;28;20245;-63
2023/02/15 14:05:22;;;;;;;0.00;0.00;;;;;;;;;;5036866;28;20257;-63
2023/02/15 14:07:53;;;;;;;0.10;0.10;;;;;;;;;;5059916;28;20225;-62
2023/02/15 14:10:26;;;;;;;0.08;0.08;;;;;;;;;;5037847;28;20379;-63
2023/02/15 14:13:00;;;;;;;0.00;0.00;;;;;;;;;;5059268;28;20203;-62
2023/02/15 14:15:30;;;;;;;0.10;0.10;;;;;;;;;;5038680;28;20284;-63
2023/02/15 14:18:00;;;;;;;0.10;0.10;;;;;;;;;;5058209;28;20281;-64
2023/02/15 14:20:35;;;;;;;0.10;0.10;;;;;;;;;;5038483;28;20529;-63
2023/02/15 14:23:06;;;;;;;0.10;0.10;;;;;;;;;;5057489;28;20222;-64
2023/02/15 14:25:36;;;;;;;0.00;0.00;;;;;;;;;;5038573;28;20254;-64
2023/02/15 14:28:06;;;;;;;0.10;0.10;;;;;;;;;;5057579;28;20201;-63
2023/02/15 14:30:35;;;;;;;0.10;0.10;;;;;;;;;;5038823;28;20308;-62
2023/02/15 14:33:06;;;;;;;0.08;0.08;;;;;;;;;;5057301;28;20259;-63
2023/02/15 14:35:32;;;;;;;0.10;0.10;;;;;;;;;;5039002;28;20309;-63
2023/02/15 14:38:03;;;;;;;0.00;0.00;;;;;;;;;;5058057;28;20463;-63
2023/02/15 14:43:28;;;;;;;0.10;0.10;;;;;;;;;;5054647;28;20204;-63
2023/02/15 14:45:55;;;;;;;0.03;0.03;;;;;;;;;;5041425;28;20270;-62
2023/02/15 14:48:24;;;;;;;0.08;0.08;;;;;;;;;;5054757;28;20268;-63
2023/02/15 14:50:50;;;;;;;0.05;0.05;;;;;;;;;;5040504;28;20307;-63
2023/02/15 14:53:17;;;;;;;0.10;0.10;;;;;;;;;;5055383;28;20447;-63
2023/02/15 14:55:45;;;;;;;0.00;0.00;;;;;;;;;;5039854;28;20263;-63
2023/02/15 14:58:12;;;;;;;0.10;0.10;;;;;;;;;;5056003;28;20261;-63
2023/02/15 15:00:39;;;;;;;0.00;0.00;;;;;;;;;;5039112;28;20312;-64
2023/02/15 15:03:12;;;;;;;0.00;0.00;;;;;;;;;;5055896;28;20258;-64
2023/02/15 15:05:48;;;;;;;0.10;0.10;;;;;;;;;;5039221;28;20241;-64
2023/02/15 15:08:23;;;;;;;0.10;0.10;;;;;;;;;;5054959;28;20205;-65
2023/02/15 15:10:51;;;;;;;0.10;0.10;;;;;;;;;;5040320;28;20309;-64
2023/02/15 15:13:32;;;;;;;0.00;0.00;;;;;;;;;;5054730;28;20247;-64
2023/02/15 15:16:19;;;;;;;0.10;0.10;;;;;;;;;;5036695;28;20454;-64
2023/02/15 15:18:47;;;;;;;0.05;0.05;;;;;;;;;;5050933;28;20243;-64
2023/02/15 15:21:46;;;;;;;0.10;0.10;;;;;;;;;;5043359;28;20256;-64
2023/02/15 15:24:37;;;;;;;0.10;0.10;;;;;;;;;;5047503;28;20445;-61